sensor_id;sensor_type;location;lat;lon;timestamp;pressure;altitude;pressure_sealevel;temperature;humidity
41062;BME280;26812;42.662;23.352;2023-11-22T00:01:51;94195.88;;;8.36;75.82
41062;BME280;26812;42.662;23.352;2023-11-22T00:04:16;94189.50;;;8.50;74.32
41062;BME280;26812;42.662;23.352;2023-11-22T00:06:43;94211.78;;;8.33;74.90
41062;BME280;26812;42.662;23.352;2023-11-22T00:09:08;94169.63;;;8.25;75.32
41062;BME280;26812;42.662;23.352;2023-11-22T00:11:35;94206.13;;;8.34;75.23
41062;BME280;26812;42.662;23.352;2023-11-22T00:14:00;94176.59;;;8.26;75.65
41062;BME280;26812;42.662;23.352;2023-11-22T00:16:25;94175.78;;;8.43;75.02
41062;BME280;26812;42.662;23.352;2023-11-22T00:18:51;94177.34;;;8.52;73.99
41062;BME280;26812;42.662;23.352;2023-11-22T00:21:16;94177.72;;;8.33;75.71
41062;BME280;26812;42.662;23.352;2023-11-22T00:23:41;94176.22;;;8.53;74.65
41062;BME280;26812;42.662;23.352;2023-11-22T00:26:08;94188.81;;;8.70;74.21
41062;BME280;26812;42.662;23.352;2023-11-22T00:28:33;94172.75;;;8.61;74.02
41062;BME280;26812;42.662;23.352;2023-11-22T00:31:00;94171.13;;;8.69;74.60
41062;BME280;26812;42.662;23.352;2023-11-22T00:33:26;94182.84;;;8.64;74.67
41062;BME280;26812;42.662;23.352;2023-11-22T00:35:51;94175.78;;;8.43;74.67
41062;BME280;26812;42.662;23.352;2023-11-22T00:38:18;94184.03;;;8.29;75.44
41062;BME280;26812;42.662;23.352;2023-11-22T00:40:44;94197.13;;;8.30;75.68
41062;BME280;26812;42.662;23.352;2023-11-22T00:43:09;94195.53;;;8.38;75.57
41062;BME280;26812;42.662;23.352;2023-11-22T00:45:35;94182.28;;;8.33;75.10
41062;BME280;26812;42.662;23.352;2023-11-22T00:48:00;94203.94;;;8.10;75.99
41062;BME280;26812;42.662;23.352;2023-11-22T00:50:26;94187.16;;;8.39;75.03
41062;BME280;26812;42.662;23.352;2023-11-22T00:52:51;94192.75;;;8.00;75.15
41062;BME280;26812;42.662;23.352;2023-11-22T00:55:16;94174.88;;;8.38;74.73
41062;BME280;26812;42.662;23.352;2023-11-22T00:57:42;94192.72;;;8.17;75.57
41062;BME280;26812;42.662;23.352;2023-11-22T01:00:08;94169.66;;;8.33;75.87
41062;BME280;26812;42.662;23.352;2023-11-22T01:02:35;94162.06;;;8.44;73.75
41062;BME280;26812;42.662;23.352;2023-11-22T01:05:05;94193.16;;;8.45;74.26
41062;BME280;26812;42.662;23.352;2023-11-22T01:07:32;94172.03;;;8.35;75.53
41062;BME280;26812;42.662;23.352;2023-11-22T01:09:58;94183.63;;;8.56;74.09
41062;BME280;26812;42.662;23.352;2023-11-22T01:12:23;94167.56;;;8.48;74.87
41062;BME280;26812;42.662;23.352;2023-11-22T01:14:48;94174.00;;;8.64;74.29
41062;BME280;26812;42.662;23.352;2023-11-22T01:17:14;94173.22;;;8.55;74.46
41062;BME280;26812;42.662;23.352;2023-11-22T01:19:39;94168.34;;;8.48;74.72
41062;BME280;26812;42.662;23.352;2023-11-22T01:22:04;94155.28;;;8.76;74.11
41062;BME280;26812;42.662;23.352;2023-11-22T01:24:31;94142.88;;;8.63;74.05
41062;BME280;26812;42.662;23.352;2023-11-22T01:26:56;94160.84;;;8.71;74.19
41062;BME280;26812;42.662;23.352;2023-11-22T01:29:22;94161.25;;;8.44;74.83
41062;BME280;26812;42.662;23.352;2023-11-22T01:31:47;94152.84;;;8.54;75.15
41062;BME280;26812;42.662;23.352;2023-11-22T01:34:12;94164.22;;;8.51;75.05
41062;BME280;26812;42.662;23.352;2023-11-22T01:36:42;94148.19;;;8.33;76.51
41062;BME280;26812;42.662;23.352;2023-11-22T01:39:08;94134.88;;;8.46;76.07
41062;BME280;26812;42.662;23.352;2023-11-22T01:41:34;94120.81;;;8.49;74.15
41062;BME280;26812;42.662;23.352;2023-11-22T01:43:59;94116.09;;;8.46;75.92
41062;BME280;26812;42.662;23.352;2023-11-22T01:46:24;94125.69;;;8.55;75.10
41062;BME280;26812;42.662;23.352;2023-11-22T01:48:52;94127.09;;;8.61;75.76
41062;BME280;26812;42.662;23.352;2023-11-22T01:51:21;94140.94;;;8.72;74.15
41062;BME280;26812;42.662;23.352;2023-11-22T01:53:48;94135.94;;;8.62;75.26
41062;BME280;26812;42.662;23.352;2023-11-22T01:56:14;94126.59;;;8.68;75.26
41062;BME280;26812;42.662;23.352;2023-11-22T01:58:41;94137.59;;;8.75;73.92
41062;BME280;26812;42.662;23.352;2023-11-22T02:01:07;94139.59;;;8.57;75.02
41062;BME280;26812;42.662;23.352;2023-11-22T02:03:34;94134.97;;;8.66;75.04
41062;BME280;26812;42.662;23.352;2023-11-22T02:05:59;94113.28;;;8.71;73.90
41062;BME280;26812;42.662;23.352;2023-11-22T02:08:25;94126.78;;;8.63;74.36
41062;BME280;26812;42.662;23.352;2023-11-22T02:11:01;94118.03;;;8.36;75.69
41062;BME280;26812;42.662;23.352;2023-11-22T02:13:30;94137.09;;;8.44;76.09
41062;BME280;26812;42.662;23.352;2023-11-22T02:15:56;94117.81;;;8.50;74.75
41062;BME280;26812;42.662;23.352;2023-11-22T02:18:25;94136.41;;;8.55;75.49
41062;BME280;26812;42.662;23.352;2023-11-22T02:20:51;94117.81;;;8.50;74.89
41062;BME280;26812;42.662;23.352;2023-11-22T02:23:16;94129.56;;;8.28;75.73
41062;BME280;26812;42.662;23.352;2023-11-22T02:25:42;94123.22;;;8.24;76.92
41062;BME280;26812;42.662;23.352;2023-11-22T02:28:08;94122.00;;;8.68;75.05
41062;BME280;26812;42.662;23.352;2023-11-22T02:30:34;94132.66;;;8.48;75.25
41062;BME280;26812;42.662;23.352;2023-11-22T02:33:00;94110.81;;;8.11;76.89
41062;BME280;26812;42.662;23.352;2023-11-22T02:35:25;94121.34;;;8.25;76.92
41062;BME280;26812;42.662;23.352;2023-11-22T02:37:55;94120.16;;;8.60;75.79
41062;BME280;26812;42.662;23.352;2023-11-22T02:40:22;94132.47;;;8.53;75.45
41062;BME280;26812;42.662;23.352;2023-11-22T02:42:52;94129.84;;;8.44;76.45
41062;BME280;26812;42.662;23.352;2023-11-22T02:45:19;94128.78;;;8.36;76.67
41062;BME280;26812;42.662;23.352;2023-11-22T02:47:45;94120.41;;;8.29;76.26
41062;BME280;26812;42.662;23.352;2023-11-22T02:50:12;94122.56;;;8.45;76.42
41062;BME280;26812;42.662;23.352;2023-11-22T02:52:38;94113.75;;;8.74;75.33
41062;BME280;26812;42.662;23.352;2023-11-22T02:55:04;94126.16;;;8.87;73.52
41062;BME280;26812;42.662;23.352;2023-11-22T02:57:30;94133.59;;;8.52;74.37
41062;BME280;26812;42.662;23.352;2023-11-22T02:59:56;94133.78;;;8.47;76.09
41062;BME280;26812;42.662;23.352;2023-11-22T03:02:22;94119.53;;;8.55;75.52
41062;BME280;26812;42.662;23.352;2023-11-22T03:04:47;94119.72;;;8.50;75.61
41062;BME280;26812;42.662;23.352;2023-11-22T03:07:13;94123.22;;;8.42;75.78
41062;BME280;26812;42.662;23.352;2023-11-22T03:09:38;94130.94;;;8.81;74.38
41062;BME280;26812;42.662;23.352;2023-11-22T03:12:05;94140.81;;;8.68;74.56
41062;BME280;26812;42.662;23.352;2023-11-22T03:14:31;94128.69;;;8.54;75.74
41062;BME280;26812;42.662;23.352;2023-11-22T03:16:57;94146.22;;;8.89;74.27
41062;BME280;26812;42.662;23.352;2023-11-22T03:19:22;94141.31;;;8.53;75.55
41062;BME280;26812;42.662;23.352;2023-11-22T03:21:49;94143.88;;;8.50;76.51
41062;BME280;26812;42.662;23.352;2023-11-22T03:24:15;94143.09;;;8.79;74.45
41062;BME280;26812;42.662;23.352;2023-11-22T03:26:41;94145.19;;;8.73;74.16
41062;BME280;26812;42.662;23.352;2023-11-22T03:29:06;94148.38;;;8.66;74.84
41062;BME280;26812;42.662;23.352;2023-11-22T03:31:32;94151.88;;;8.67;75.50
41062;BME280;26812;42.662;23.352;2023-11-22T03:33:57;94126.81;;;8.46;75.72
41062;BME280;26812;42.662;23.352;2023-11-22T03:36:23;94149.06;;;8.55;75.67
41062;BME280;26812;42.662;23.352;2023-11-22T03:38:49;94131.59;;;8.40;75.73
41062;BME280;26812;42.662;23.352;2023-11-22T03:41:16;94128.22;;;8.60;76.05
41062;BME280;26812;42.662;23.352;2023-11-22T03:43:42;94134.78;;;8.71;74.86
41062;BME280;26812;42.662;23.352;2023-11-22T03:46:08;94129.34;;;8.51;76.03
41062;BME280;26812;42.662;23.352;2023-11-22T03:48:33;94120.03;;;8.48;75.61
41062;BME280;26812;42.662;23.352;2023-11-22T03:50:59;94116.03;;;8.63;73.73
41062;BME280;26812;42.662;23.352;2023-11-22T03:53:24;94116.03;;;8.63;75.37
41062;BME280;26812;42.662;23.352;2023-11-22T03:55:52;94135.38;;;8.77;75.50
41062;BME280;26812;42.662;23.352;2023-11-22T03:58:18;94117.59;;;8.93;73.94
41062;BME280;26812;42.662;23.352;2023-11-22T04:00:43;94122.66;;;8.57;75.54
41062;BME280;26812;42.662;23.352;2023-11-22T04:03:09;94104.56;;;8.45;75.64
41062;BME280;26812;42.662;23.352;2023-11-22T04:05:34;94122.25;;;8.46;77.05
41062;BME280;26812;42.662;23.352;2023-11-22T04:07:59;94134.59;;;8.38;76.52
41062;BME280;26812;42.662;23.352;2023-11-22T04:10:25;94127.19;;;8.18;77.47
41062;BME280;26812;42.662;23.352;2023-11-22T04:12:50;94145.28;;;8.47;77.67
41062;BME280;26812;42.662;23.352;2023-11-22T04:15:16;94163.81;;;8.31;77.15
41062;BME280;26812;42.662;23.352;2023-11-22T04:17:41;94141.53;;;8.39;77.70
41062;BME280;26812;42.662;23.352;2023-11-22T04:20:08;94167.75;;;8.43;77.29
41062;BME280;26812;42.662;23.352;2023-11-22T04:22:43;94168.09;;;8.15;78.12
41062;BME280;26812;42.662;23.352;2023-11-22T04:25:10;94171.38;;;8.29;78.71
41062;BME280;26812;42.662;23.352;2023-11-22T04:27:39;94173.56;;;8.45;76.63
41062;BME280;26812;42.662;23.352;2023-11-22T04:30:07;94176.75;;;8.29;76.70
41062;BME280;26812;42.662;23.352;2023-11-22T04:32:38;94185.28;;;8.31;77.49
41062;BME280;26812;42.662;23.352;2023-11-22T04:35:05;94165.88;;;8.34;76.67
41062;BME280;26812;42.662;23.352;2023-11-22T04:37:31;94187.91;;;8.57;76.12
41062;BME280;26812;42.662;23.352;2023-11-22T04:39:58;94181.81;;;8.39;77.08
41062;BME280;26812;42.662;23.352;2023-11-22T04:42:23;94179.69;;;8.54;76.29
41062;BME280;26812;42.662;23.352;2023-11-22T04:44:49;94175.16;;;8.46;75.87
41062;BME280;26812;42.662;23.352;2023-11-22T04:47:14;94171.38;;;8.29;77.51
41062;BME280;26812;42.662;23.352;2023-11-22T04:49:40;94194.44;;;8.39;77.47
41062;BME280;26812;42.662;23.352;2023-11-22T04:52:05;94188.19;;;8.64;76.17
41062;BME280;26812;42.662;23.352;2023-11-22T04:54:31;94194.88;;;8.58;76.75
41062;BME280;26812;42.662;23.352;2023-11-22T04:56:57;94199.66;;;8.18;78.29
41062;BME280;26812;42.662;23.352;2023-11-22T04:59:22;94214.56;;;8.71;77.45
41062;BME280;26812;42.662;23.352;2023-11-22T05:01:48;94224.78;;;8.78;76.99
41062;BME280;26812;42.662;23.352;2023-11-22T05:04:14;94237.81;;;8.50;78.00
41062;BME280;26812;42.662;23.352;2023-11-22T05:06:39;94230.34;;;8.73;76.90
41062;BME280;26812;42.662;23.352;2023-11-22T05:09:05;94226.81;;;8.34;77.64
41062;BME280;26812;42.662;23.352;2023-11-22T05:11:31;94219.06;;;8.32;78.60
41062;BME280;26812;42.662;23.352;2023-11-22T05:13:57;94243.50;;;8.65;78.59
41062;BME280;26812;42.662;23.352;2023-11-22T05:16:22;94247.00;;;8.40;79.26
41062;BME280;26812;42.662;23.352;2023-11-22T05:18:49;94247.72;;;8.75;78.49
41062;BME280;26812;42.662;23.352;2023-11-22T05:21:15;94244.31;;;8.49;79.22
41062;BME280;26812;42.662;23.352;2023-11-22T05:23:40;94244.47;;;8.44;80.19
41062;BME280;26812;42.662;23.352;2023-11-22T05:26:06;94256.97;;;8.39;80.34
41062;BME280;26812;42.662;23.352;2023-11-22T05:28:31;94262.28;;;8.57;81.39
41062;BME280;26812;42.662;23.352;2023-11-22T05:30:57;94252.25;;;8.92;80.03
41062;BME280;26812;42.662;23.352;2023-11-22T05:33:22;94270.28;;;8.91;79.83
41062;BME280;26812;42.662;23.352;2023-11-22T05:35:49;94259.31;;;8.41;81.54
41062;BME280;26812;42.662;23.352;2023-11-22T05:38:14;94278.66;;;8.81;80.45
41062;BME280;26812;42.662;23.352;2023-11-22T05:40:40;94274.44;;;8.54;80.87
41062;BME280;26812;42.662;23.352;2023-11-22T05:43:06;94280.31;;;8.39;82.26
41062;BME280;26812;42.662;23.352;2023-11-22T05:45:33;94279.16;;;8.75;81.53
41062;BME280;26812;42.662;23.352;2023-11-22T05:47:59;94287.88;;;8.63;82.53
41062;BME280;26812;42.662;23.352;2023-11-22T05:50:25;94281.53;;;8.76;82.04
41062;BME280;26812;42.662;23.352;2023-11-22T05:52:50;94269.72;;;8.60;82.67
41062;BME280;26812;42.662;23.352;2023-11-22T05:55:16;94293.22;;;8.71;81.33
41062;BME280;26812;42.662;23.352;2023-11-22T05:57:43;94253.31;;;8.27;82.84
41062;BME280;26812;42.662;23.352;2023-11-22T06:00:09;94309.81;;;8.74;83.39
41062;BME280;26812;42.662;23.352;2023-11-22T06:02:35;94314.38;;;8.73;83.20
41062;BME280;26812;42.662;23.352;2023-11-22T06:05:02;94310.59;;;8.57;83.94
41062;BME280;26812;42.662;23.352;2023-11-22T06:07:28;94304.63;;;8.60;84.20
41062;BME280;26812;42.662;23.352;2023-11-22T06:09:54;94317.84;;;8.91;82.76
41062;BME280;26812;42.662;23.352;2023-11-22T06:12:20;94326.25;;;8.72;83.40
41062;BME280;26812;42.662;23.352;2023-11-22T06:14:46;94313.00;;;8.50;83.93
41062;BME280;26812;42.662;23.352;2023-11-22T06:17:12;94322.28;;;8.69;84.69
41062;BME280;26812;42.662;23.352;2023-11-22T06:19:37;94334.97;;;9.16;82.01
41062;BME280;26812;42.662;23.352;2023-11-22T06:22:03;94339.97;;;8.88;82.65
41062;BME280;26812;42.662;23.352;2023-11-22T06:24:29;94344.19;;;9.06;83.01
41062;BME280;26812;42.662;23.352;2023-11-22T06:26:54;94330.34;;;8.78;83.18
41062;BME280;26812;42.662;23.352;2023-11-22T06:29:20;94330.84;;;8.63;84.04
41062;BME280;26812;42.662;23.352;2023-11-22T06:31:45;94336.31;;;8.84;85.09
41062;BME280;26812;42.662;23.352;2023-11-22T06:34:11;94341.53;;;8.97;84.50
41062;BME280;26812;42.662;23.352;2023-11-22T06:36:37;94351.72;;;9.21;81.69
41062;BME280;26812;42.662;23.352;2023-11-22T06:39:03;94330.72;;;9.15;82.63
41062;BME280;26812;42.662;23.352;2023-11-22T06:41:30;94321.53;;;9.24;81.28
41062;BME280;26812;42.662;23.352;2023-11-22T06:43:55;94340.28;;;9.33;81.10
41062;BME280;26812;42.662;23.352;2023-11-22T06:46:20;94353.88;;;9.37;81.49
41062;BME280;26812;42.662;23.352;2023-11-22T06:48:48;94363.38;;;9.34;82.12
41062;BME280;26812;42.662;23.352;2023-11-22T06:51:14;94353.84;;;8.98;83.12
41062;BME280;26812;42.662;23.352;2023-11-22T06:53:40;94379.53;;;9.25;81.80
41062;BME280;26812;42.662;23.352;2023-11-22T06:56:06;94379.06;;;9.15;82.52
41062;BME280;26812;42.662;23.352;2023-11-22T06:58:31;94375.19;;;8.86;83.36
41062;BME280;26812;42.662;23.352;2023-11-22T07:00:57;94365.31;;;9.25;81.58
41062;BME280;26812;42.662;23.352;2023-11-22T07:03:22;94362.66;;;9.08;81.67
41062;BME280;26812;42.662;23.352;2023-11-22T07:05:47;94365.53;;;9.02;82.83
41062;BME280;26812;42.662;23.352;2023-11-22T07:08:13;94383.19;;;9.21;82.42
41062;BME280;26812;42.662;23.352;2023-11-22T07:10:41;94389.38;;;9.04;81.60
41062;BME280;26812;42.662;23.352;2023-11-22T07:13:07;94389.97;;;9.18;81.46
41062;BME280;26812;42.662;23.352;2023-11-22T07:15:32;94379.66;;;9.38;81.49
41062;BME280;26812;42.662;23.352;2023-11-22T07:17:58;94387.25;;;9.74;79.23
41062;BME280;26812;42.662;23.352;2023-11-22T07:20:23;94365.72;;;9.44;79.47
41062;BME280;26812;42.662;23.352;2023-11-22T07:22:49;94368.06;;;9.46;80.38
41062;BME280;26812;42.662;23.352;2023-11-22T07:25:20;94399.19;;;9.93;78.76
41062;BME280;26812;42.662;23.352;2023-11-22T07:27:46;94398.53;;;9.67;79.74
41062;BME280;26812;42.662;23.352;2023-11-22T07:30:13;94394.53;;;9.82;80.13
41062;BME280;26812;42.662;23.352;2023-11-22T07:32:39;94375.94;;;9.59;80.62
41062;BME280;26812;42.662;23.352;2023-11-22T07:35:06;94388.16;;;9.48;82.20
41062;BME280;26812;42.662;23.352;2023-11-22T07:37:34;94396.03;;;9.91;80.79
41062;BME280;26812;42.662;23.352;2023-11-22T07:40:01;94406.66;;;9.88;80.35
41062;BME280;26812;42.662;23.352;2023-11-22T07:42:28;94406.09;;;10.03;80.00
41062;BME280;26812;42.662;23.352;2023-11-22T07:44:53;94404.31;;;9.86;79.86
41062;BME280;26812;42.662;23.352;2023-11-22T07:47:21;94411.31;;;9.70;81.43
41062;BME280;26812;42.662;23.352;2023-11-22T07:49:50;94419.41;;;9.70;81.78
41062;BME280;26812;42.662;23.352;2023-11-22T07:52:15;94400.50;;;9.87;80.41
41062;BME280;26812;42.662;23.352;2023-11-22T07:54:41;94405.75;;;10.13;78.71
41062;BME280;26812;42.662;23.352;2023-11-22T07:57:06;94404.59;;;9.93;79.21
41062;BME280;26812;42.662;23.352;2023-11-22T07:59:32;94415.31;;;9.64;81.25
41062;BME280;26812;42.662;23.352;2023-11-22T08:01:58;94420.59;;;9.90;79.80
41062;BME280;26812;42.662;23.352;2023-11-22T08:04:26;94422.16;;;9.91;79.11
41062;BME280;26812;42.662;23.352;2023-11-22T08:06:52;94418.22;;;9.88;80.27
41062;BME280;26812;42.662;23.352;2023-11-22T08:09:22;94415.09;;;10.07;78.92
41062;BME280;26812;42.662;23.352;2023-11-22T08:11:48;94401.44;;;9.91;80.34
41062;BME280;26812;42.662;23.352;2023-11-22T08:14:13;94418.97;;;9.98;78.88
41062;BME280;26812;42.662;23.352;2023-11-22T08:16:39;94421.25;;;9.78;80.76
41062;BME280;26812;42.662;23.352;2023-11-22T08:19:08;94424.56;;;9.84;80.88
41062;BME280;26812;42.662;23.352;2023-11-22T08:21:33;94434.66;;;9.95;80.35
41062;BME280;26812;42.662;23.352;2023-11-22T08:23:59;94411.28;;;9.79;81.32
41062;BME280;26812;42.662;23.352;2023-11-22T08:26:25;94433.84;;;9.95;81.24
41062;BME280;26812;42.662;23.352;2023-11-22T08:28:51;94434.38;;;10.18;79.58
41062;BME280;26812;42.662;23.352;2023-11-22T08:31:16;94423.09;;;9.95;79.82
41062;BME280;26812;42.662;23.352;2023-11-22T08:33:42;94437.13;;;10.39;77.87
41062;BME280;26812;42.662;23.352;2023-11-22T08:36:08;94440.13;;;10.37;77.14
41062;BME280;26812;42.662;23.352;2023-11-22T08:38:34;94438.03;;;10.22;77.97
41062;BME280;26812;42.662;23.352;2023-11-22T08:41:03;94434.50;;;10.30;77.81
41062;BME280;26812;42.662;23.352;2023-11-22T08:43:31;94425.75;;;10.33;77.24
41062;BME280;26812;42.662;23.352;2023-11-22T08:45:58;94447.34;;;10.54;77.05
41062;BME280;26812;42.662;23.352;2023-11-22T08:48:23;94450.09;;;10.66;76.78
41062;BME280;26812;42.662;23.352;2023-11-22T08:50:49;94443.59;;;10.67;76.40
41062;BME280;26812;42.662;23.352;2023-11-22T08:53:15;94438.84;;;10.64;76.23
41062;BME280;26812;42.662;23.352;2023-11-22T08:55:42;94437.88;;;10.89;75.36
41062;BME280;26812;42.662;23.352;2023-11-22T08:58:15;94443.00;;;10.82;73.89
41062;BME280;26812;42.662;23.352;2023-11-22T09:00:41;94440.16;;;11.00;74.34
41062;BME280;26812;42.662;23.352;2023-11-22T09:03:08;94428.81;;;10.73;74.09
41062;BME280;26812;42.662;23.352;2023-11-22T09:05:33;94453.31;;;11.01;73.47
41062;BME280;26812;42.662;23.352;2023-11-22T09:07:59;94451.13;;;10.95;74.05
41062;BME280;26812;42.662;23.352;2023-11-22T09:10:25;94446.75;;;11.11;73.54
41062;BME280;26812;42.662;23.352;2023-11-22T09:12:52;94458.47;;;11.27;73.11
41062;BME280;26812;42.662;23.352;2023-11-22T09:15:18;94469.38;;;11.31;72.44
41062;BME280;26812;42.662;23.352;2023-11-22T09:17:49;94472.41;;;11.29;72.14
41062;BME280;26812;42.662;23.352;2023-11-22T09:20:15;94464.84;;;11.43;72.02
41062;BME280;26812;42.662;23.352;2023-11-22T09:22:46;94459.47;;;11.56;71.71
41062;BME280;26812;42.662;23.352;2023-11-22T09:25:20;94460.38;;;11.27;71.62
41062;BME280;26812;42.662;23.352;2023-11-22T09:27:50;94471.81;;;11.24;72.60
41062;BME280;26812;42.662;23.352;2023-11-22T09:30:20;94457.53;;;11.11;72.92
41062;BME280;26812;42.662;23.352;2023-11-22T09:33:15;94487.06;;;11.07;74.17
41062;BME280;26812;42.662;23.352;2023-11-22T09:35:42;94480.38;;;11.26;73.76
41062;BME280;26812;42.662;23.352;2023-11-22T09:38:10;94479.84;;;11.32;73.67
41062;BME280;26812;42.662;23.352;2023-11-22T09:40:55;94482.03;;;11.18;74.39
41062;BME280;26812;42.662;23.352;2023-11-22T09:43:22;94479.09;;;11.11;74.97
41062;BME280;26812;42.662;23.352;2023-11-22T09:45:50;94478.75;;;11.33;74.26
41062;BME280;26812;42.662;23.352;2023-11-22T09:48:20;94488.53;;;11.38;73.96
41062;BME280;26812;42.662;23.352;2023-11-22T09:53:34;94478.53;;;11.38;74.20
41062;BME280;26812;42.662;23.352;2023-11-22T09:56:01;94477.06;;;11.08;75.50
41062;BME280;26812;42.662;23.352;2023-11-22T09:58:31;94473.16;;;11.17;75.58
41062;BME280;26812;42.662;23.352;2023-11-22T10:01:02;94484.84;;;11.42;75.50
41062;BME280;26812;42.662;23.352;2023-11-22T10:03:29;94482.28;;;11.58;74.49
41062;BME280;26812;42.662;23.352;2023-11-22T10:05:58;94489.66;;;11.70;74.07
41062;BME280;26812;42.662;23.352;2023-11-22T10:08:29;94486.38;;;11.64;73.72
41062;BME280;26812;42.662;23.352;2023-11-22T10:10:57;94480.03;;;11.60;74.12
41062;BME280;26812;42.662;23.352;2023-11-22T10:13:23;94478.19;;;11.73;74.13
41062;BME280;26812;42.662;23.352;2023-11-22T10:15:52;94463.69;;;11.77;72.98
41062;BME280;26812;42.662;23.352;2023-11-22T10:18:19;94463.78;;;11.69;73.23
41062;BME280;26812;42.662;23.352;2023-11-22T10:20:46;94465.31;;;11.58;73.71
41062;BME280;26812;42.662;23.352;2023-11-22T10:23:16;94446.50;;;11.37;74.71
41062;BME280;26812;42.662;23.352;2023-11-22T10:25:47;94461.34;;;11.43;74.71
41062;BME280;26812;42.662;23.352;2023-11-22T10:28:15;94465.28;;;11.78;73.09
41062;BME280;26812;42.662;23.352;2023-11-22T10:30:41;94467.09;;;11.54;73.82
41062;BME280;26812;42.662;23.352;2023-11-22T10:33:09;94449.13;;;11.58;74.17
41062;BME280;26812;42.662;23.352;2023-11-22T10:35:41;94444.47;;;11.34;74.79
41062;BME280;26812;42.662;23.352;2023-11-22T10:38:08;94472.53;;;11.66;74.94
41062;BME280;26812;42.662;23.352;2023-11-22T10:40:34;94470.72;;;11.58;74.70
41062;BME280;26812;42.662;23.352;2023-11-22T10:43:01;94470.97;;;11.65;73.00
41062;BME280;26812;42.662;23.352;2023-11-22T10:45:29;94466.31;;;11.53;74.74
41062;BME280;26812;42.662;23.352;2023-11-22T10:47:56;94475.88;;;11.50;74.10
41062;BME280;26812;42.662;23.352;2023-11-22T10:50:22;94481.94;;;11.47;74.94
41062;BME280;26812;42.662;23.352;2023-11-22T10:52:51;94474.63;;;11.48;75.27
41062;BME280;26812;42.662;23.352;2023-11-22T10:55:21;94482.41;;;11.95;73.14
41062;BME280;26812;42.662;23.352;2023-11-22T10:57:52;94471.75;;;11.65;73.77
41062;BME280;26812;42.662;23.352;2023-11-22T11:00:21;94483.88;;;11.59;74.56
41062;BME280;26812;42.662;23.352;2023-11-22T11:02:53;94469.25;;;12.05;71.67
41062;BME280;26812;42.662;23.352;2023-11-22T11:05:25;94476.38;;;11.65;72.62
41062;BME280;26812;42.662;23.352;2023-11-22T11:08:12;94468.72;;;11.67;73.97
41062;BME280;26812;42.662;23.352;2023-11-22T11:10:40;94460.97;;;11.77;73.83
41062;BME280;26812;42.662;23.352;2023-11-22T11:13:10;94447.09;;;11.55;74.17
41062;BME280;26812;42.662;23.352;2023-11-22T11:15:36;94471.06;;;12.01;73.43
41062;BME280;26812;42.662;23.352;2023-11-22T11:18:04;94474.34;;;11.74;74.46
41062;BME280;26812;42.662;23.352;2023-11-22T11:20:55;94479.91;;;11.44;75.88
41062;BME280;26812;42.662;23.352;2023-11-22T11:23:23;94485.28;;;11.44;76.71
41062;BME280;26812;42.662;23.352;2023-11-22T11:25:52;94473.16;;;11.50;77.21
41062;BME280;26812;42.662;23.352;2023-11-22T11:28:19;94470.31;;;11.68;75.93
41062;BME280;26812;42.662;23.352;2023-11-22T11:30:46;94450.53;;;11.76;74.53
41062;BME280;26812;42.662;23.352;2023-11-22T11:33:14;94482.63;;;11.90;73.83
41062;BME280;26812;42.662;23.352;2023-11-22T11:35:51;94461.81;;;11.57;74.64
41062;BME280;26812;42.662;23.352;2023-11-22T11:38:20;94479.13;;;11.56;76.74
41062;BME280;26812;42.662;23.352;2023-11-22T11:40:47;94462.88;;;11.65;76.50
41062;BME280;26812;42.662;23.352;2023-11-22T11:43:14;94466.06;;;11.79;75.71
41062;BME280;26812;42.662;23.352;2023-11-22T11:45:40;94468.09;;;11.82;74.74
41062;BME280;26812;42.662;23.352;2023-11-22T11:48:12;94480.25;;;11.88;74.61
41062;BME280;26812;42.662;23.352;2023-11-22T11:50:39;94477.38;;;12.05;74.19
41062;BME280;26812;42.662;23.352;2023-11-22T11:53:04;94465.00;;;12.04;73.68
41062;BME280;26812;42.662;23.352;2023-11-22T11:55:30;94480.91;;;11.85;73.45
41062;BME280;26812;42.662;23.352;2023-11-22T11:57:56;94465.47;;;11.73;73.42
41062;BME280;26812;42.662;23.352;2023-11-22T12:00:23;94473.53;;;12.06;73.52
41062;BME280;26812;42.662;23.352;2023-11-22T12:02:50;94459.47;;;12.13;72.60
41062;BME280;26812;42.662;23.352;2023-11-22T12:05:18;94480.44;;;12.28;72.00
41062;BME280;26812;42.662;23.352;2023-11-22T12:07:45;94470.19;;;12.34;71.84
41062;BME280;26812;42.662;23.352;2023-11-22T12:10:18;94486.81;;;12.48;70.90
41062;BME280;26812;42.662;23.352;2023-11-22T12:12:44;94492.66;;;12.50;71.24
41062;BME280;26812;42.662;23.352;2023-11-22T12:15:23;94502.13;;;12.44;71.02
41062;BME280;26812;42.662;23.352;2023-11-22T12:17:49;94506.16;;;12.87;70.28
41062;BME280;26812;42.662;23.352;2023-11-22T12:20:19;94506.84;;;12.47;71.44
41062;BME280;26812;42.662;23.352;2023-11-22T12:22:47;94510.13;;;12.40;71.87
41062;BME280;26812;42.662;23.352;2023-11-22T12:25:13;94512.28;;;12.59;71.06
41062;BME280;26812;42.662;23.352;2023-11-22T12:27:40;94503.59;;;12.41;71.50
41062;BME280;26812;42.662;23.352;2023-11-22T12:30:07;94502.38;;;12.27;72.14
41062;BME280;26812;42.662;23.352;2023-11-22T12:32:32;94503.72;;;12.45;72.56
41062;BME280;26812;42.662;23.352;2023-11-22T12:34:58;94495.16;;;12.67;71.53
41062;BME280;26812;42.662;23.352;2023-11-22T12:37:23;94502.69;;;12.74;70.11
41062;BME280;26812;42.662;23.352;2023-11-22T12:39:50;94499.19;;;12.73;70.21
41062;BME280;26812;42.662;23.352;2023-11-22T12:42:17;94490.31;;;12.49;71.41
41062;BME280;26812;42.662;23.352;2023-11-22T12:44:50;94514.28;;;12.50;71.86
41062;BME280;26812;42.662;23.352;2023-11-22T12:47:37;94522.06;;;12.88;70.25
41062;BME280;26812;42.662;23.352;2023-11-22T12:50:03;94519.69;;;12.50;71.48
41062;BME280;26812;42.662;23.352;2023-11-22T12:52:29;94548.28;;;13.00;69.79
41062;BME280;26812;42.662;23.352;2023-11-22T12:54:58;94548.72;;;13.02;69.51
41062;BME280;26812;42.662;23.352;2023-11-22T12:57:23;94534.78;;;12.75;70.25
41062;BME280;26812;42.662;23.352;2023-11-22T12:59:49;94525.44;;;12.61;71.03